Time;durP1;ratioP1;P1;durP2;ratioP2;P2;SDS_P1;SDS_P2;PMS_P1;PMS_P2;Temp;Humidity;BMP_temperature;BMP_pressure;BME280_temperature;BME280_humidity;BME280_pressure;Samples;Min_cycle;Max_cycle;Signal;HPM_P1;HPM_P2
2022/11/20 00:01:25;;;;;;;9.20;6.73;;;;;;;4.33;88.19;95177.78;1701914;84;21500;-71
2022/11/20 00:03:54;;;;;;;8.57;6.77;;;;;;;4.21;88.33;95165.14;1702072;84;21021;-71
2022/11/20 00:06:22;;;;;;;8.93;6.80;;;;;;;4.10;88.39;95165.16;1702009;84;21524;-71
2022/11/20 00:08:50;;;;;;;6.20;5.40;;;;;;;4.04;88.56;95159.95;1701718;84;21094;-71
2022/11/20 00:11:20;;;;;;;6.60;4.60;;;;;;;3.99;88.57;95161.26;1653583;87;21094;-71
2022/11/20 00:13:49;;;;;;;6.80;5.40;;;;;;;3.92;89.17;95156.91;1653574;87;21360;-72
2022/11/20 00:16:20;;;;;;;6.83;5.63;;;;;;;3.88;89.30;95148.22;1653655;87;21046;-72
2022/11/20 00:18:47;;;;;;;7.00;5.63;;;;;;;3.89;89.12;95147.77;1682669;85;21021;-72
2022/11/20 00:21:24;;;;;;;8.30;5.93;;;;;;;3.90;89.23;95136.45;1709927;84;21038;-72
2022/11/20 00:23:52;;;;;;;8.37;6.87;;;;;;;3.90;89.17;95139.92;1710257;83;21065;-72
2022/11/20 00:26:21;;;;;;;7.80;6.70;;;;;;;3.91;89.42;95138.20;1653597;86;21046;-72
2022/11/20 00:28:54;;;;;;;6.23;4.83;;;;;;;3.93;89.41;95131.66;1653596;87;21049;-72
2022/11/20 00:31:21;;;;;;;;;;;;;;;3.97;89.66;95125.14;1685082;85;21108;-72
2022/11/20 00:33:47;;;;;;;5.53;4.13;;;;;;;3.99;89.70;95123.41;1709759;84;20106;-72
2022/11/20 00:36:18;;;;;;;3.93;3.43;;;;;;;3.99;89.70;95131.23;1709706;84;21354;-72
2022/11/20 00:38:46;;;;;;;4.27;3.37;;;;;;;4.02;89.81;95124.70;1710242;84;21072;-72
2022/11/20 00:41:15;;;;;;;4.20;3.30;;;;;;;4.04;89.78;95119.05;1653405;87;21039;-72
2022/11/20 00:43:43;;;;;;;2.53;2.00;;;;;;;4.12;89.78;95120.34;1653500;87;21070;-72
2022/11/20 00:46:20;;;;;;;1.30;1.20;;;;;;;4.15;89.48;95116.41;1701021;84;21153;-71
2022/11/20 00:48:47;;;;;;;1.40;1.30;;;;;;;4.12;88.41;95116.43;1650645;87;21034;-71
2022/11/20 00:51:18;;;;;;;1.27;0.90;;;;;;;4.10;88.05;95116.86;1650889;87;21492;-72
2022/11/20 00:53:45;;;;;;;1.03;0.70;;;;;;;3.94;87.02;95131.67;1679640;85;21104;-72
2022/11/20 00:56:15;;;;;;;1.00;0.60;;;;;;;3.80;86.23;95126.88;1701828;84;20990;-72
2022/11/20 00:58:45;;;;;;;0.70;0.50;;;;;;;3.82;87.14;95127.31;1650874;87;21059;-72
2022/11/20 01:01:19;;;;;;;0.40;0.40;;;;;;;3.78;86.48;95136.45;1650813;87;21096;-72
2022/11/20 01:03:49;;;;;;;0.63;0.37;;;;;;;3.77;86.92;95134.28;1679534;85;21021;-72
2022/11/20 01:06:35;;;;;;;0.63;0.40;;;;;;;3.80;87.28;95134.71;1701973;84;21053;-72
2022/11/20 01:09:10;;;;;;;0.40;0.30;;;;;;;3.81;86.92;95132.56;1624914;87;20348;-72
2022/11/20 01:11:41;;;;;;;2.90;1.10;;;;;;;3.80;86.77;95117.75;1650282;87;21064;-72
2022/11/20 01:14:13;;;;;;;6.07;1.70;;;;;;;3.83;86.91;95123.86;1679640;85;21048;-72
2022/11/20 01:16:43;;;;;;;3.70;2.10;;;;;;;3.84;86.95;95115.14;1701904;84;21018;-71
2022/11/20 01:19:15;;;;;;;3.97;1.67;;;;;;;3.90;87.35;95119.05;1650725;87;21094;-72
2022/11/20 01:21:44;;;;;;;1.83;1.30;;;;;;;3.93;87.06;95123.42;1698822;84;21481;-72
2022/11/20 01:24:15;;;;;;;0.53;0.53;;;;;;;3.94;86.84;95125.15;1650598;87;21091;-72
2022/11/20 01:26:44;;;;;;;0.50;0.37;;;;;;;3.87;86.79;95124.27;1650810;87;21021;-72
2022/11/20 01:29:21;;;;;;;0.30;0.20;;;;;;;3.82;86.74;95118.19;1679977;85;21004;-72
2022/11/20 01:31:48;;;;;;;0.70;0.60;;;;;;;3.78;86.63;95107.33;1701890;84;21010;-72
2022/11/20 01:34:18;;;;;;;2.07;0.83;;;;;;;3.77;86.80;95116.45;1650492;87;21062;-72
2022/11/20 01:36:45;;;;;;;0.63;0.47;;;;;;;3.74;86.76;95121.68;1650807;87;21093;-72
2022/11/20 01:39:25;;;;;;;0.57;0.50;;;;;;;3.72;86.89;95126.02;1679464;85;21044;-72
2022/11/20 01:44:50;;;;;;;0.27;0.17;;;;;;;3.56;86.49;95114.28;1650494;87;21130;-71
2022/11/20 01:47:43;;;;;;;0.30;0.20;;;;;;;3.49;86.61;95119.05;1644707;86;21541;-72
2022/11/20 01:50:26;;;;;;;0.20;0.20;;;;;;;3.40;86.75;95118.62;1650835;87;20995;-72
2022/11/20 01:52:57;;;;;;;0.10;0.10;;;;;;;3.35;87.09;95117.74;1650991;87;21062;-72
2022/11/20 01:55:29;;;;;;;0.10;0.10;;;;;;;3.32;87.33;95111.20;1668254;86;21329;-72
2022/11/20 01:57:56;;;;;;;0.40;0.40;;;;;;;3.32;87.57;95103.38;1668529;86;21068;-72
2022/11/20 02:00:23;;;;;;;2.70;0.30;;;;;;;3.34;87.60;95097.73;1668240;85;21064;-72
2022/11/20 02:03:01;;;;;;;1.17;0.20;;;;;;;3.36;87.61;95097.30;1668507;85;21080;-72
2022/11/20 02:05:38;;;;;;;0.50;0.40;;;;;;;3.38;87.87;95082.54;1668377;86;21518;-72
2022/11/20 02:08:06;;;;;;;0.60;0.53;;;;;;;3.42;87.79;95078.18;1668259;86;21063;-72
2022/11/20 02:10:34;;;;;;;2.40;1.20;;;;;;;3.42;87.89;95067.75;1668364;85;21020;-72
2022/11/20 02:15:48;;;;;;;0.73;0.50;;;;;;;3.52;88.23;95067.31;1668476;85;21037;-72
2022/11/20 02:18:19;;;;;;;0.40;0.37;;;;;;;3.52;88.00;95060.36;1668472;85;21100;-72
2022/11/20 02:20:49;;;;;;;2.50;1.40;;;;;;;3.53;88.00;95054.70;1668355;85;21062;-72
2022/11/20 02:23:30;;;;;;;1.87;1.20;;;;;;;3.54;88.06;95057.32;1668499;86;20997;-72
2022/11/20 02:25:58;;;;;;;1.63;1.20;;;;;;;3.50;87.72;95045.58;1667466;86;21064;-73
2022/11/20 02:28:26;;;;;;;1.10;0.70;;;;;;;3.50;87.94;95042.53;1668229;85;21040;-72
2022/11/20 02:30:52;;;;;;;0.70;0.67;;;;;;;3.57;88.21;95052.54;1668436;86;21542;-73
2022/11/20 02:33:18;;;;;;;2.00;0.70;;;;;;;3.61;87.63;95049.07;1668436;86;21044;-72
2022/11/20 02:35:47;;;;;;;2.53;0.57;;;;;;;3.69;88.18;95031.22;1668378;86;21088;-72
2022/11/20 02:38:15;;;;;;;0.70;0.60;;;;;;;3.74;88.04;95028.61;1668322;86;21611;-72
2022/11/20 02:40:42;;;;;;;0.43;0.43;;;;;;;3.80;88.20;95023.37;1668198;85;21111;-72
2022/11/20 02:43:09;;;;;;;1.30;0.90;;;;;;;3.88;87.88;95025.55;1668262;85;21044;-72
2022/11/20 02:45:37;;;;;;;1.60;0.60;;;;;;;3.87;87.37;95018.58;1668264;85;21111;-72
2022/11/20 02:48:04;;;;;;;0.50;0.40;;;;;;;3.93;87.54;95019.02;1668210;85;21053;-72
2022/11/20 02:50:30;;;;;;;1.77;0.30;;;;;;;3.95;87.42;95004.64;1668334;86;21052;-72
2022/11/20 02:52:57;;;;;;;2.40;0.20;;;;;;;3.98;87.60;95008.13;1668463;86;21510;-72
2022/11/20 02:55:23;;;;;;;0.40;0.40;;;;;;;3.92;86.64;95002.05;1668107;85;21582;-71
2022/11/20 02:57:50;;;;;;;0.90;0.70;;;;;;;3.75;85.98;95014.68;1668349;86;21120;-72
2022/11/20 03:00:18;;;;;;;1.40;0.70;;;;;;;3.62;86.39;95002.53;1668651;85;21072;-72
2022/11/20 03:02:44;;;;;;;3.67;0.83;;;;;;;3.55;86.83;94996.88;1691104;84;21405;-72
2022/11/20 03:05:11;;;;;;;0.73;0.37;;;;;;;3.51;87.35;95007.77;1668582;85;21515;-73
2022/11/20 03:07:37;;;;;;;0.37;0.33;;;;;;;3.52;87.39;94990.38;1668797;86;21024;-72
2022/11/20 03:10:06;;;;;;;1.03;0.50;;;;;;;3.50;87.42;94973.85;1668463;85;21037;-73
2022/11/20 03:12:32;;;;;;;1.20;0.60;;;;;;;3.47;87.34;94976.03;1668873;86;21511;-73
2022/11/20 03:14:59;;;;;;;5.70;2.33;;;;;;;3.42;87.16;94986.91;1668643;85;21063;-72
2022/11/20 03:17:25;;;;;;;4.83;3.00;;;;;;;3.30;87.46;94972.56;1645189;86;21124;-73
2022/11/20 03:19:52;;;;;;;3.57;1.87;;;;;;;3.20;87.65;94962.16;1668191;86;21096;-72
2022/11/20 03:22:19;;;;;;;4.13;1.57;;;;;;;3.15;87.86;94977.34;1668596;86;21068;-72
2022/11/20 03:24:45;;;;;;;1.60;1.00;;;;;;;3.10;88.28;94967.36;1668171;85;21064;-72
2022/11/20 03:27:12;;;;;;;0.30;0.30;;;;;;;3.11;88.00;94969.97;1668475;86;21028;-72
2022/11/20 03:29:39;;;;;;;0.70;0.50;;;;;;;3.14;87.76;94973.88;1668204;86;21060;-73
2022/11/20 03:32:07;;;;;;;4.33;2.60;;;;;;;3.11;87.91;94963.45;1668353;86;21068;-72
2022/11/20 03:34:34;;;;;;;1.63;1.10;;;;;;;3.12;88.35;94966.92;1668262;85;21096;-72
2022/11/20 03:37:00;;;;;;;3.30;2.47;;;;;;;3.15;88.34;94972.13;1668717;85;21012;-71
2022/11/20 03:39:26;;;;;;;2.70;1.07;;;;;;;3.15;88.25;94982.16;1668535;85;21084;-72
2022/11/20 03:41:54;;;;;;;2.00;1.20;;;;;;;3.17;88.45;94981.69;1668298;86;21064;-72
2022/11/20 03:44:22;;;;;;;1.30;0.70;;;;;;;3.20;88.41;94970.39;1668443;86;21038;-72
2022/11/20 03:46:49;;;;;;;0.80;0.60;;;;;;;3.25;88.64;94978.67;1669897;85;21514;-72
2022/11/20 03:49:15;;;;;;;0.60;0.40;;;;;;;3.33;88.59;94978.66;1650036;85;21581;-72
2022/11/20 03:51:42;;;;;;;1.57;0.80;;;;;;;3.38;88.42;94970.84;1679471;85;21044;-72
2022/11/20 03:54:09;;;;;;;1.30;0.70;;;;;;;3.42;88.26;94971.25;1679791;85;21064;-73
2022/11/20 03:56:38;;;;;;;0.50;0.30;;;;;;;3.44;88.20;94960.39;1679610;85;21091;-72
2022/11/20 03:59:05;;;;;;;0.40;0.37;;;;;;;3.46;87.64;94966.04;1679658;85;21035;-73
2022/11/20 04:01:34;;;;;;;0.60;0.30;;;;;;;3.49;87.90;94951.27;1679722;85;21016;-73
2022/11/20 04:04:01;;;;;;;0.53;0.23;;;;;;;3.54;88.14;94950.38;1679656;85;21035;-72
2022/11/20 04:06:32;;;;;;;0.50;0.20;;;;;;;3.63;87.74;94953.42;1679706;85;21071;-72
2022/11/20 04:08:59;;;;;;;0.43;0.10;;;;;;;3.66;87.41;94941.66;1679604;85;21040;-72
2022/11/20 04:11:30;;;;;;;0.10;0.10;;;;;;;3.72;87.74;94940.77;1679587;85;21048;-72
2022/11/20 04:14:04;;;;;;;0.97;0.30;;;;;;;3.73;87.33;94935.97;1679384;85;21083;-72
2022/11/20 04:16:34;;;;;;;0.37;0.20;;;;;;;3.68;87.12;94917.31;1679562;85;21116;-72
2022/11/20 04:19:05;;;;;;;0.63;0.43;;;;;;;3.71;87.42;94912.96;1679714;85;21549;-70
2022/11/20 04:21:31;;;;;;;2.13;1.60;;;;;;;3.72;86.91;94917.30;1679706;85;21486;-72
2022/11/20 04:23:58;;;;;;;3.57;2.83;;;;;;;3.54;86.06;94913.00;1679344;85;21048;-72
2022/11/20 04:26:28;;;;;;;3.23;2.93;;;;;;;3.43;86.53;94904.77;1679175;85;21083;-72
2022/11/20 04:28:56;;;;;;;2.87;2.00;;;;;;;3.37;87.13;94910.41;1679758;85;21024;-72
2022/11/20 04:31:27;;;;;;;3.30;2.40;;;;;;;3.33;87.43;94908.27;1679574;85;21522;-72
2022/11/20 04:33:53;;;;;;;28.33;11.70;;;;;;;3.30;87.54;94899.16;1679279;85;20996;-72
2022/11/20 04:36:24;;;;;;;15.23;8.07;;;;;;;3.25;87.51;94901.76;1679336;85;21083;-72
2022/11/20 04:38:54;;;;;;;8.93;4.97;;;;;;;3.21;87.70;94899.16;1679723;85;21064;-72
2022/11/20 04:41:23;;;;;;;4.60;2.70;;;;;;;3.21;87.96;94896.11;1679495;84;21549;-73
2022/11/20 04:43:53;;;;;;;1.63;1.20;;;;;;;3.20;87.84;94905.22;1679807;85;21072;-72
2022/11/20 04:46:21;;;;;;;11.00;8.50;;;;;;;3.17;87.92;94920.88;1679702;85;21040;-73
2022/11/20 04:48:48;;;;;;;4.37;3.33;;;;;;;3.11;87.47;94916.98;1673914;85;21582;-72
2022/11/20 04:51:15;;;;;;;6.77;5.43;;;;;;;3.01;87.82;94906.99;1668413;85;21068;-72
2022/11/20 04:53:42;;;;;;;10.07;6.93;;;;;;;2.95;88.13;94900.05;1668537;86;21025;-72
2022/11/20 04:56:11;;;;;;;9.83;7.50;;;;;;;2.95;88.40;94888.77;1668220;85;21057;-72
2022/11/20 04:58:39;;;;;;;6.00;3.90;;;;;;;2.98;88.71;94894.83;1668401;86;21183;-72
2022/11/20 05:01:12;;;;;;;2.17;1.57;;;;;;;3.06;88.93;94901.78;1668504;85;21028;-72
2022/11/20 05:03:40;;;;;;;2.43;2.20;;;;;;;3.15;89.01;94905.66;1668518;86;21080;-72
2022/11/20 05:06:09;;;;;;;2.63;2.03;;;;;;;3.25;89.30;94892.64;1668439;86;21022;-72
2022/11/20 05:08:36;;;;;;;2.07;1.77;;;;;;;3.33;89.07;94895.67;1668409;86;21068;-71
2022/11/20 05:11:10;;;;;;;2.40;2.20;;;;;;;3.41;89.17;94890.86;1668256;86;21638;-72
2022/11/20 05:13:37;;;;;;;2.87;2.00;;;;;;;3.50;88.66;94890.39;1667577;86;21084;-72
2022/11/20 05:16:10;;;;;;;2.13;1.80;;;;;;;3.54;88.37;94884.30;1668339;86;21064;-72
2022/11/20 05:18:38;;;;;;;4.00;1.50;;;;;;;3.58;88.27;94875.58;1669052;84;21570;-72
2022/11/20 05:21:06;;;;;;;1.37;1.20;;;;;;;3.66;88.59;94871.23;1668368;86;21420;-72
2022/11/20 05:23:34;;;;;;;0.80;0.80;;;;;;;3.77;88.27;94865.95;1668364;86;21068;-72
2022/11/20 05:26:01;;;;;;;1.47;0.90;;;;;;;3.77;87.30;94865.52;1668484;86;21037;-72
2022/11/20 05:28:30;;;;;;;1.10;0.80;;;;;;;3.82;87.68;94865.50;1668382;85;21033;-72
2022/11/20 05:31:07;;;;;;;2.10;1.90;;;;;;;3.81;87.06;94865.08;1668318;86;21032;-73
2022/11/20 05:33:36;;;;;;;4.87;3.03;;;;;;;3.80;86.95;94862.89;1668589;86;21479;-72
2022/11/20 05:36:05;;;;;;;6.00;3.50;;;;;;;3.77;87.31;94853.77;1668388;86;21021;-72
2022/11/20 05:38:32;;;;;;;2.07;1.67;;;;;;;3.86;88.03;94857.66;1668307;86;21028;-72
2022/11/20 05:41:17;;;;;;;1.90;1.50;;;;;;;3.90;87.67;94855.89;1668144;86;21064;-72
2022/11/20 05:43:46;;;;;;;8.87;5.47;;;;;;;3.94;87.34;94860.67;1668449;85;21017;-72
2022/11/20 05:46:17;;;;;;;8.57;4.80;;;;;;;3.85;86.27;94877.22;1668385;86;21051;-72
2022/11/20 05:48:45;;;;;;;7.67;4.53;;;;;;;3.75;86.58;94871.17;1668648;85;21092;-71
2022/11/20 05:51:16;;;;;;;6.77;4.23;;;;;;;3.70;86.87;94870.32;1668292;86;21021;-72
2022/11/20 05:53:43;;;;;;;4.03;2.70;;;;;;;3.68;87.16;94869.48;1668484;85;21044;-72
2022/11/20 05:56:14;;;;;;;3.47;2.20;;;;;;;3.70;87.22;94863.80;1668171;85;21092;-72
2022/11/20 05:58:41;;;;;;;15.30;7.33;;;;;;;3.67;87.01;94864.68;1668111;86;21068;-72
2022/11/20 06:01:16;;;;;;;11.17;6.10;;;;;;;3.65;87.04;94870.37;1668134;85;21072;-72
2022/11/20 06:03:45;;;;;;;11.00;7.73;;;;;;;3.47;86.71;94875.18;1668443;86;21044;-72
2022/11/20 06:06:13;;;;;;;9.23;5.80;;;;;;;3.37;86.86;94873.47;1668321;86;21044;-72
2022/11/20 06:08:40;;;;;;;5.40;4.53;;;;;;;3.30;87.32;94876.98;1668103;86;21040;-73
2022/11/20 06:11:12;;;;;;;5.73;4.63;;;;;;;3.23;87.33;94880.48;1668144;85;21053;-72
2022/11/20 06:13:39;;;;;;;4.17;3.77;;;;;;;3.20;87.77;94883.06;1668324;85;21012;-71
2022/11/20 06:16:07;;;;;;;6.27;5.20;;;;;;;3.20;87.75;94882.66;1668106;85;21638;-72
2022/11/20 06:18:33;;;;;;;6.23;5.40;;;;;;;3.18;87.60;94875.27;1668237;86;21012;-72
2022/11/20 06:21:14;;;;;;;4.13;3.20;;;;;;;3.21;87.99;94878.30;1668093;86;21060;-72
2022/11/20 06:23:41;;;;;;;1.63;1.20;;;;;;;3.24;88.26;94879.59;1668458;85;21072;-72
2022/11/20 06:26:14;;;;;;;6.53;2.53;;;;;;;3.27;88.54;94888.70;1668351;86;21519;-72
2022/11/20 06:28:41;;;;;;;6.30;4.55;;;;;;;3.31;88.68;94881.32;1669099;84;21028;-72
2022/11/20 06:31:12;;;;;;;6.23;4.27;;;;;;;3.37;88.61;94890.86;1668210;86;21554;-72
2022/11/20 06:33:39;;;;;;;3.37;3.07;;;;;;;3.50;89.06;94895.16;1668459;86;21016;-72
2022/11/20 06:36:06;;;;;;;5.17;3.87;;;;;;;3.56;88.66;94895.17;1668310;85;21060;-72
2022/11/20 06:38:33;;;;;;;26.17;11.67;;;;;;;3.62;88.44;94897.74;1668346;86;21077;-72
2022/11/20 06:40:59;;;;;;;23.17;10.07;;;;;;;3.64;88.27;94902.53;1668214;86;21080;-72
2022/11/20 06:43:28;;;;;;;14.43;7.47;;;;;;;3.72;88.37;94905.55;1668269;85;21052;-72
2022/11/20 06:45:57;;;;;;;12.43;6.27;;;;;;;3.79;88.51;94900.30;1668098;86;21673;-72
2022/11/20 06:48:25;;;;;;;9.33;6.27;;;;;;;3.82;87.91;94902.89;1668331;86;21495;-72
2022/11/20 06:50:52;;;;;;;15.30;7.10;;;;;;;3.84;87.62;94908.98;1668502;86;21107;-72
2022/11/20 06:53:19;;;;;;;9.13;5.83;;;;;;;3.81;87.58;94918.58;1668716;85;21040;-72
2022/11/20 06:55:47;;;;;;;10.93;5.60;;;;;;;3.78;87.83;94896.38;1668484;86;21076;-72
2022/11/20 06:58:16;;;;;;;10.90;6.27;;;;;;;3.80;87.78;94903.77;1668091;85;21104;-72
2022/11/20 07:00:43;;;;;;;9.03;5.33;;;;;;;3.79;87.83;94910.74;1668192;85;21095;-72
2022/11/20 07:03:12;;;;;;;10.77;6.63;;;;;;;3.81;87.99;94915.97;1668338;86;21152;-72
2022/11/20 07:05:40;;;;;;;12.53;6.67;;;;;;;3.76;87.76;94912.51;1668295;86;21013;-72
2022/11/20 07:08:07;;;;;;;9.90;6.67;;;;;;;3.87;88.80;94915.93;1668111;85;21112;-72
2022/11/20 07:10:34;;;;;;;13.23;6.83;;;;;;;3.92;88.39;94911.56;1668288;86;21052;-72
2022/11/20 07:13:01;;;;;;;9.33;6.57;;;;;;;3.97;88.39;94909.80;1668222;85;21053;-72
2022/11/20 07:15:27;;;;;;;9.90;7.00;;;;;;;4.04;88.65;94906.73;1668421;85;21085;-72
2022/11/20 07:17:54;;;;;;;14.97;9.27;;;;;;;4.04;87.91;94912.82;1668652;85;21036;-72
2022/11/20 07:20:21;;;;;;;28.07;17.13;;;;;;;4.00;87.79;94911.53;1668204;85;21033;-72
2022/11/20 07:22:55;;;;;;;70.23;38.37;;;;;;;3.97;87.69;94916.33;1668252;85;21498;-72
2022/11/20 07:25:26;;;;;;;57.03;33.03;;;;;;;3.87;87.59;94910.27;1668495;85;21527;-72
2022/11/20 07:27:55;;;;;;;40.27;26.03;;;;;;;3.83;87.99;94911.17;1667569;86;21036;-72
2022/11/20 07:30:22;;;;;;;33.47;20.07;;;;;;;3.87;88.39;94903.74;1667906;86;21106;-72
2022/11/20 07:32:54;;;;;;;31.43;19.47;;;;;;;3.90;88.36;94905.03;1668545;86;20992;-72
2022/11/20 07:35:22;;;;;;;25.27;17.80;;;;;;;3.94;88.41;94915.48;1668389;85;21169;-72
2022/11/20 07:37:49;;;;;;;26.23;17.10;;;;;;;3.89;87.95;94918.97;1668452;86;21798;-72
2022/11/20 07:40:18;;;;;;;23.07;16.17;;;;;;;3.77;87.98;94920.75;1668472;86;21684;-72
2022/11/20 07:42:52;;;;;;;18.70;13.13;;;;;;;3.72;88.14;94927.28;1668060;86;21061;-72
2022/11/20 07:45:21;;;;;;;16.97;12.47;;;;;;;3.72;88.47;94936.42;1668551;85;21052;-72
2022/11/20 07:47:48;;;;;;;17.20;11.80;;;;;;;3.67;88.53;94939.48;1668456;86;21036;-72
2022/11/20 07:50:15;;;;;;;13.90;9.33;;;;;;;3.63;88.68;94928.64;1668080;85;21072;-72
2022/11/20 07:52:42;;;;;;;16.07;9.40;;;;;;;3.61;89.03;94932.98;1668575;86;21474;-72
2022/11/20 07:55:10;;;;;;;9.87;7.47;;;;;;;3.62;88.97;94937.31;1668739;85;21048;-72
2022/11/20 07:57:37;;;;;;;10.27;7.93;;;;;;;3.68;89.03;94934.71;1668334;86;21056;-72
2022/11/20 08:00:08;;;;;;;12.67;7.93;;;;;;;3.75;89.09;94927.71;1668386;86;21052;-72
2022/11/20 08:02:42;;;;;;;23.23;17.27;;;;;;;3.82;89.14;94934.21;1668575;85;21037;-72
2022/11/20 08:05:09;;;;;;;10.10;7.67;;;;;;;3.89;89.30;94935.93;1668007;86;21040;-73
2022/11/20 08:07:38;;;;;;;8.07;5.83;;;;;;;3.96;89.33;94926.34;1668406;86;21091;-72
2022/11/20 08:10:06;;;;;;;5.93;4.47;;;;;;;4.03;89.38;94924.56;1668576;86;21518;-72
2022/11/20 08:15:18;;;;;;;10.87;8.50;;;;;;;4.20;89.52;94926.66;1668590;85;21021;-73
2022/11/20 08:17:45;;;;;;;11.97;8.83;;;;;;;4.36;89.07;94931.80;1668691;86;21012;-73
2022/11/20 08:20:12;;;;;;;11.90;8.13;;;;;;;4.38;88.73;94941.37;1668571;85;21100;-72
2022/11/20 08:22:38;;;;;;;10.60;7.50;;;;;;;4.50;89.16;94935.22;1668883;85;21029;-73
2022/11/20 08:25:06;;;;;;;15.40;10.60;;;;;;;4.60;89.10;94946.04;1668365;86;20976;-72
2022/11/20 08:27:32;;;;;;;14.67;9.60;;;;;;;4.69;89.00;94947.30;1668649;85;21063;-72
2022/11/20 08:29:59;;;;;;;16.03;10.80;;;;;;;4.83;89.15;94938.05;1668566;86;21068;-72
2022/11/20 08:32:26;;;;;;;9.97;6.23;;;;;;;4.95;88.45;94919.66;1668433;86;21507;-72
2022/11/20 08:34:52;;;;;;;4.80;3.87;;;;;;;4.95;87.91;94923.58;1668524;86;21016;-71
2022/11/20 08:37:19;;;;;;;11.70;9.93;;;;;;;4.98;87.69;94926.17;1668702;86;21044;-71
2022/11/20 08:39:46;;;;;;;10.50;8.63;;;;;;;5.05;87.64;94926.14;1668422;86;21562;-71
2022/11/20 08:42:13;;;;;;;6.43;3.57;;;;;;;5.12;88.06;94918.23;1668195;85;21061;-72
2022/11/20 08:44:39;;;;;;;3.43;2.80;;;;;;;5.08;86.80;94918.27;1668456;85;21026;-72
2022/11/20 08:47:06;;;;;;;4.07;3.43;;;;;;;5.10;87.36;94930.44;1668213;85;21550;-72
2022/11/20 08:49:32;;;;;;;3.97;3.10;;;;;;;5.07;86.84;94939.63;1671232;85;21043;-72
2022/11/20 08:51:59;;;;;;;3.87;3.00;;;;;;;5.07;86.97;94927.00;1679567;85;21499;-72
2022/11/20 08:54:25;;;;;;;3.50;2.63;;;;;;;5.03;86.39;94927.89;1679579;85;21103;-72
2022/11/20 08:56:52;;;;;;;2.53;1.87;;;;;;;5.01;86.68;94930.50;1679622;85;21068;-73
2022/11/20 08:59:19;;;;;;;2.23;2.00;;;;;;;5.01;86.71;94934.42;1679516;85;21048;-73
2022/11/20 09:01:45;;;;;;;3.20;2.40;;;;;;;4.95;86.19;94940.58;1679495;85;21059;-73
2022/11/20 09:04:14;;;;;;;2.97;2.53;;;;;;;4.84;86.23;94938.49;1679645;85;21047;-72
2022/11/20 09:06:40;;;;;;;4.07;3.53;;;;;;;4.85;86.79;94944.59;1679742;85;21112;-72
2022/11/20 09:09:07;;;;;;;3.90;1.33;;;;;;;4.85;86.95;94948.50;1679385;85;21043;-73
2022/11/20 09:11:35;;;;;;;0.87;0.60;;;;;;;4.77;86.18;94955.09;1679459;85;21131;-72
2022/11/20 09:14:02;;;;;;;0.70;0.60;;;;;;;4.68;86.08;94961.22;1679391;85;21116;-72
2022/11/20 09:16:29;;;;;;;1.30;1.10;;;;;;;4.57;86.17;94960.88;1679570;85;21048;-72
2022/11/20 09:18:56;;;;;;;1.37;1.17;;;;;;;4.55;87.06;94955.20;1679663;85;21055;-72
2022/11/20 09:21:23;;;;;;;1.20;0.90;;;;;;;4.57;87.42;94944.76;1679445;85;21051;-72
2022/11/20 09:23:50;;;;;;;2.20;0.57;;;;;;;4.58;87.55;94944.31;1679554;85;21040;-72
2022/11/20 09:26:16;;;;;;;1.63;0.80;;;;;;;4.56;87.50;94941.70;1679682;85;21071;-72
2022/11/20 09:28:43;;;;;;;1.33;0.80;;;;;;;4.58;87.62;94946.48;1679343;85;21100;-72
2022/11/20 09:31:22;;;;;;;1.00;0.50;;;;;;;4.60;87.77;94943.42;1679575;85;21036;-72
2022/11/20 09:33:49;;;;;;;40.33;24.07;;;;;;;4.56;87.46;94941.70;1679769;85;21088;-72
2022/11/20 09:36:18;;;;;;;1.97;1.50;;;;;;;4.55;87.77;94941.28;1679603;85;21043;-73
2022/11/20 09:38:48;;;;;;;0.57;0.57;;;;;;;4.59;88.10;94943.02;1679805;85;21574;-72
2022/11/20 09:41:48;;;;;;;0.50;0.40;;;;;;;4.62;87.98;94944.73;1679695;85;21039;-72
2022/11/20 09:44:39;;;;;;;0.90;0.73;;;;;;;4.65;87.88;94941.66;1679563;85;21099;-73
2022/11/20 09:47:35;;;;;;;0.70;0.57;;;;;;;4.74;88.58;94944.66;1680126;85;21100;-73
2022/11/20 09:50:36;;;;;;;1.10;0.40;;;;;;;4.90;88.89;94937.12;1675492;85;21697;-72
2022/11/20 09:53:18;;;;;;;1.70;1.07;;;;;;;5.03;88.29;94934.42;1668503;86;21040;-73
2022/11/20 09:55:46;;;;;;;0.63;0.63;;;;;;;5.07;87.86;94925.69;1668388;84;21024;-72
2022/11/20 09:58:29;;;;;;;2.23;2.03;;;;;;;5.13;87.89;94934.33;1667839;85;21068;-72
2022/11/20 10:01:00;;;;;;;1.70;1.30;;;;;;;5.21;87.84;94929.03;1668658;85;21093;-72
2022/11/20 10:03:38;;;;;;;5.00;4.33;;;;;;;5.31;87.77;94921.98;1645344;86;21062;-72
2022/11/20 10:06:08;;;;;;;8.40;7.60;;;;;;;5.41;87.70;94924.48;1668457;85;21083;-72
2022/11/20 10:08:47;;;;;;;5.17;4.37;;;;;;;5.43;86.94;94931.03;1668677;85;21052;-73
2022/11/20 10:11:36;;;;;;;5.73;3.80;;;;;;;5.48;87.21;94925.76;1669557;84;21567;-72
2022/11/20 10:14:17;;;;;;;8.53;6.70;;;;;;;5.53;87.03;94920.89;1668028;86;21048;-72
2022/11/20 10:17:25;;;;;;;8.77;7.10;;;;;;;5.61;87.37;94919.06;1668397;85;21100;-72
2022/11/20 10:20:23;;;;;;;7.10;5.70;;;;;;;5.68;86.52;94914.64;1668127;85;21185;-72
2022/11/20 10:23:28;;;;;;;6.93;5.47;;;;;;;5.65;86.59;94910.75;1668373;85;21152;-73
2022/11/20 10:26:38;;;;;;;4.37;3.97;;;;;;;5.73;86.69;94908.05;1668453;85;21013;-73
2022/11/20 10:29:25;;;;;;;4.67;3.87;;;;;;;5.71;86.58;94909.36;1668441;86;21024;-73
2022/11/20 10:32:03;;;;;;;3.97;3.13;;;;;;;5.75;86.49;94912.84;1664217;86;21077;-73
2022/11/20 10:34:36;;;;;;;4.73;3.17;;;;;;;5.68;86.12;94913.33;1662226;86;21014;-73
2022/11/20 10:37:10;;;;;;;4.10;2.93;;;;;;;5.53;85.42;94913.49;1664809;86;21050;-73
2022/11/20 10:40:12;;;;;;;4.03;2.93;;;;;;;5.45;86.16;94916.19;1664076;86;21590;-72
2022/11/20 10:42:54;;;;;;;5.17;3.60;;;;;;;5.39;86.16;94919.73;1664671;86;21034;-72
2022/11/20 10:45:32;;;;;;;3.03;2.60;;;;;;;5.32;86.32;94917.19;1664712;86;21481;-73
2022/11/20 10:48:17;;;;;;;2.97;2.37;;;;;;;5.28;86.92;94918.95;1664968;86;21041;-73
2022/11/20 10:51:33;;;;;;;3.10;2.67;;;;;;;5.28;87.18;94918.09;1664804;86;21026;-72
2022/11/20 10:54:26;;;;;;;3.40;2.77;;;;;;;5.26;87.50;94923.32;1664828;86;21018;-72
2022/11/20 10:56:57;;;;;;;3.42;2.58;;;;;;;5.29;87.67;94923.73;1664112;86;21589;-72
2022/11/20 10:59:58;;;;;;;5.97;3.27;;;;;;;5.30;87.69;94924.18;1663974;86;21058;-72
2022/11/20 11:02:35;;;;;;;4.47;3.30;;;;;;;5.29;87.91;94924.63;1664742;86;21085;-73
2022/11/20 11:05:37;;;;;;;3.87;3.10;;;;;;;5.27;87.86;94923.77;1664814;86;21532;-72
2022/11/20 11:08:11;;;;;;;3.47;2.60;;;;;;;5.27;88.12;94929.45;1664769;86;21074;-73
2022/11/20 11:10:50;;;;;;;3.47;2.63;;;;;;;5.24;88.07;94934.27;1664570;86;21133;-74
2022/11/20 11:13:26;;;;;;;4.27;3.20;;;;;;;5.26;87.97;94929.00;1664488;86;21035;-73
2022/11/20 11:15:53;;;;;;;13.23;6.20;;;;;;;5.26;88.26;94935.09;1664699;86;21057;-73
2022/11/20 11:18:30;;;;;;;12.53;7.47;;;;;;;5.26;88.07;94941.63;1664876;86;21520;-73
2022/11/20 11:20:59;;;;;;;12.77;7.50;;;;;;;5.25;88.01;94938.60;1665074;86;21050;-73
2022/11/20 11:23:33;;;;;;;10.50;6.40;;;;;;;5.25;88.13;94924.66;1665024;86;21046;-73
2022/11/20 11:26:03;;;;;;;10.07;6.93;;;;;;;5.22;88.58;94924.25;1664046;86;21571;-73
2022/11/20 11:28:30;;;;;;;9.07;6.17;;;;;;;5.24;88.65;94929.03;1664892;86;21588;-73
2022/11/20 11:30:56;;;;;;;12.93;6.00;;;;;;;5.26;88.74;94931.17;1665992;86;21065;-72
2022/11/20 11:33:36;;;;;;;12.10;7.57;;;;;;;5.28;88.92;94920.26;1667582;86;21062;-72
2022/11/20 11:36:04;;;;;;;14.37;8.73;;;;;;;5.36;89.20;94922.80;1666681;86;21042;-73
2022/11/20 11:38:39;;;;;;;11.27;8.13;;;;;;;5.47;89.22;94922.69;1667685;86;21499;-73
2022/11/20 11:41:21;;;;;;;10.93;6.50;;;;;;;5.51;88.81;94924.41;1667581;86;21091;-72
2022/11/20 11:46:35;;;;;;;2.50;2.12;;;;;;;5.62;88.50;94918.20;1640354;86;21082;-73
2022/11/20 11:49:11;;;;;;;3.70;2.60;;;;;;;5.61;87.59;94922.98;1667627;86;21037;-73
2022/11/20 11:52:13;;;;;;;8.67;4.93;;;;;;;5.56;87.50;94926.09;1667128;86;21555;-73
2022/11/20 11:54:53;;;;;;;5.40;4.20;;;;;;;5.52;87.60;94930.95;1667896;86;20986;-73
2022/11/20 11:57:46;;;;;;;7.03;3.90;;;;;;;5.51;87.74;94936.19;1667532;86;21217;-73
2022/11/20 12:00:19;;;;;;;8.60;4.60;;;;;;;5.57;88.03;94936.14;1667608;85;21153;-73
2022/11/20 12:03:07;;;;;;;5.90;4.10;;;;;;;5.61;87.70;94929.53;1667479;86;21034;-73
2022/11/20 12:05:49;;;;;;;8.77;5.07;;;;;;;5.63;87.49;94930.83;1667465;86;21089;-73
2022/11/20 12:08:43;;;;;;;4.47;3.27;;;;;;;5.64;87.26;94922.09;1667715;86;21034;-73
2022/11/20 12:11:18;;;;;;;5.50;3.83;;;;;;;5.68;87.64;94925.11;1667322;86;21808;-73